createdAt,value
2019-06-23T00:00:52.055Z,16.60
2019-06-23T00:03:36.121Z,16.70
2019-06-23T00:05:53.509Z,16.70
2019-06-23T00:08:23.390Z,16.60
2019-06-23T00:10:53.331Z,16.50
2019-06-23T00:13:23.245Z,16.40
2019-06-23T00:15:53.135Z,16.40
2019-06-23T00:18:23.043Z,16.30
2019-06-23T00:20:52.904Z,16.30
2019-06-23T00:23:22.790Z,16.30
2019-06-23T00:25:52.715Z,16.20
2019-06-23T00:28:22.577Z,16.20
2019-06-23T00:30:57.527Z,16.20
2019-06-23T00:33:27.384Z,16.20
2019-06-23T00:35:57.285Z,16.10
2019-06-23T00:38:27.225Z,16.10
2019-06-23T00:40:57.098Z,16.10
2019-06-23T00:43:27.030Z,16.00
2019-06-23T00:45:56.970Z,16.00
2019-06-23T00:48:27.820Z,15.90
2019-06-23T00:50:57.755Z,15.80
2019-06-23T00:53:27.669Z,15.80
2019-06-23T00:55:57.828Z,15.80
2019-06-23T00:58:27.837Z,15.70
2019-06-23T01:00:59.802Z,15.70
2019-06-23T01:03:29.606Z,15.70
2019-06-23T01:05:59.540Z,15.70
2019-06-23T01:08:29.623Z,15.60
2019-06-23T01:10:59.671Z,15.60
2019-06-23T01:13:29.529Z,15.60
2019-06-23T01:15:59.454Z,15.60
2019-06-23T01:18:29.358Z,15.50
2019-06-23T01:20:59.221Z,15.40
2019-06-23T01:23:29.179Z,15.40
2019-06-23T01:25:59.052Z,15.30
2019-06-23T01:28:28.919Z,15.30
2019-06-23T01:30:58.885Z,15.30
2019-06-23T01:33:28.679Z,15.40
2019-06-23T01:35:58.510Z,15.40
2019-06-23T01:38:28.563Z,15.30
2019-06-23T01:40:58.499Z,15.30
2019-06-23T01:43:28.382Z,15.30
2019-06-23T01:45:58.363Z,15.30
2019-06-23T01:48:28.235Z,15.40
2019-06-23T01:50:59.018Z,15.40
2019-06-23T01:53:28.923Z,15.40
2019-06-23T01:55:58.789Z,15.40
2019-06-23T01:58:28.650Z,15.40
2019-06-23T02:00:58.771Z,15.40
2019-06-23T02:03:28.631Z,15.40
2019-06-23T02:05:58.498Z,15.30
2019-06-23T02:08:28.402Z,15.30
2019-06-23T02:10:58.280Z,15.30
2019-06-23T02:13:28.177Z,15.30
2019-06-23T02:15:58.091Z,15.30
2019-06-23T02:18:27.964Z,15.30
2019-06-23T02:20:59.521Z,15.20
2019-06-23T02:23:29.469Z,15.20
2019-06-23T02:25:59.311Z,15.30
2019-06-23T02:28:29.151Z,15.30
2019-06-23T02:30:59.082Z,15.30
2019-06-23T02:33:29.024Z,15.40
2019-06-23T02:35:58.895Z,15.30
2019-06-23T02:38:28.808Z,15.30
2019-06-23T02:40:58.698Z,15.30
2019-06-23T02:43:28.729Z,15.30
2019-06-23T02:46:02.962Z,15.20
2019-06-23T02:48:36.616Z,15.20
2019-06-23T02:51:38.533Z,15.10
2019-06-23T02:54:39.151Z,15.10
2019-06-23T02:57:17.258Z,15.10
2019-06-23T02:59:47.181Z,15.00
2019-06-23T03:02:17.032Z,15.00
2019-06-23T03:04:46.891Z,15.00
2019-06-23T03:07:16.847Z,14.90
2019-06-23T03:09:46.713Z,15.00
2019-06-23T03:12:16.595Z,15.00
2019-06-23T03:14:46.550Z,14.90
2019-06-23T03:17:16.428Z,14.80
2019-06-23T03:19:46.347Z,14.80
2019-06-23T03:22:16.271Z,14.80
2019-06-23T03:24:46.166Z,14.80
2019-06-23T03:27:16.123Z,14.80
2019-06-23T03:29:46.153Z,14.70
2019-06-23T03:32:16.334Z,14.70
2019-06-23T03:34:46.482Z,14.70
2019-06-23T03:37:17.324Z,14.70
2019-06-23T03:39:47.671Z,14.70
2019-06-23T03:42:18.527Z,14.70
2019-06-23T03:44:48.572Z,14.70
2019-06-23T03:47:18.644Z,14.80
2019-06-23T03:49:48.603Z,14.70
2019-06-23T03:52:19.572Z,14.80
2019-06-23T03:54:53.999Z,14.80
2019-06-23T03:57:23.930Z,14.80
2019-06-23T03:59:53.824Z,14.80
2019-06-23T04:02:23.696Z,14.90
2019-06-23T04:04:53.638Z,14.90
2019-06-23T04:07:23.525Z,14.90
2019-06-23T04:09:53.382Z,14.90
2019-06-23T04:12:23.350Z,15.00
2019-06-23T04:14:53.233Z,15.10
2019-06-23T04:17:23.115Z,15.10
2019-06-23T04:19:53.059Z,15.10
2019-06-23T04:22:23.042Z,15.10
2019-06-23T04:24:52.923Z,15.20
2019-06-23T04:27:23.840Z,15.20
2019-06-23T04:29:53.770Z,15.20
2019-06-23T04:32:24.805Z,15.30
2019-06-23T04:34:55.291Z,15.40
2019-06-23T04:37:32.385Z,15.50
2019-06-23T04:40:02.295Z,15.60
2019-06-23T04:42:32.154Z,15.70
2019-06-23T04:45:02.191Z,15.70
2019-06-23T04:47:32.112Z,15.80
2019-06-23T04:50:02.016Z,15.80
2019-06-23T04:52:31.968Z,15.90
2019-06-23T04:55:02.009Z,16.00
2019-06-23T04:57:31.882Z,16.10
2019-06-23T05:00:01.752Z,16.30
2019-06-23T05:02:31.673Z,16.30
2019-06-23T05:05:01.775Z,16.40
2019-06-23T05:07:31.673Z,16.50
2019-06-23T05:10:01.573Z,16.60
2019-06-23T05:12:31.559Z,16.80
2019-06-23T05:15:01.409Z,16.90
2019-06-23T05:17:37.625Z,17.00
2019-06-23T05:20:05.424Z,17.20
2019-06-23T05:22:37.998Z,17.20
2019-06-23T05:25:09.058Z,17.30
2019-06-23T05:27:38.932Z,17.40
2019-06-23T05:30:09.258Z,17.50
2019-06-23T05:32:39.113Z,17.60
2019-06-23T05:35:09.534Z,17.70
2019-06-23T05:37:39.457Z,17.80
2019-06-23T05:40:09.830Z,17.90
2019-06-23T05:42:39.727Z,18.00
2019-06-23T05:45:10.255Z,18.00
2019-06-23T05:47:40.178Z,18.10
2019-06-23T05:50:11.041Z,18.20
2019-06-23T05:52:41.098Z,18.30
2019-06-23T05:55:11.269Z,18.40
2019-06-23T05:57:42.339Z,18.50
2019-06-23T06:00:12.762Z,18.60
2019-06-23T06:02:42.615Z,18.60
2019-06-23T06:05:12.581Z,18.70
2019-06-23T06:07:43.062Z,18.80
2019-06-23T06:10:13.355Z,18.90
2019-06-23T06:12:43.194Z,19.00
2019-06-23T06:15:13.464Z,19.10
2019-06-23T06:17:43.442Z,19.30
2019-06-23T06:20:13.424Z,19.40
2019-06-23T06:22:43.357Z,19.50
2019-06-23T06:25:14.248Z,19.60
2019-06-23T06:27:44.102Z,19.70
2019-06-23T06:30:14.445Z,19.90
2019-06-23T06:32:44.607Z,20.00
2019-06-23T06:35:14.676Z,20.10
2019-06-23T06:37:44.669Z,20.20
2019-06-23T06:40:15.370Z,20.30
2019-06-23T06:42:45.334Z,20.40
2019-06-23T06:45:15.502Z,20.50
2019-06-23T06:47:46.589Z,20.50
2019-06-23T06:50:16.636Z,20.60
2019-06-23T06:52:46.571Z,20.70
2019-06-23T06:55:16.537Z,20.70
2019-06-23T06:57:46.438Z,20.70
2019-06-23T07:00:17.892Z,20.80
2019-06-23T07:02:47.748Z,20.90
2019-06-23T07:05:17.587Z,21.00
2019-06-23T07:07:47.505Z,21.00
2019-06-23T07:10:17.589Z,21.10
2019-06-23T07:12:47.444Z,21.20
2019-06-23T07:15:17.561Z,21.30
2019-06-23T07:17:47.559Z,21.30
2019-06-23T07:20:17.687Z,21.40
2019-06-23T07:22:47.560Z,21.50
2019-06-23T07:25:17.437Z,21.50
2019-06-23T07:27:47.298Z,21.50
2019-06-23T07:30:58.957Z,21.60
2019-06-23T07:33:28.820Z,21.70
2019-06-23T07:35:58.687Z,21.70
2019-06-23T07:38:28.620Z,21.80
2019-06-23T07:40:59.428Z,21.90
2019-06-23T07:43:29.338Z,22.10
2019-06-23T07:45:59.255Z,22.10
2019-06-23T07:48:30.038Z,22.30
2019-06-23T07:50:59.942Z,22.40
2019-06-23T07:53:29.892Z,22.40
2019-06-23T07:55:59.800Z,22.40
2019-06-23T07:58:29.639Z,22.40
2019-06-23T08:01:00.549Z,22.40
2019-06-23T08:03:30.422Z,22.50
2019-06-23T08:06:00.283Z,22.60
2019-06-23T08:08:30.240Z,22.60
2019-06-23T08:11:00.079Z,22.70
2019-06-23T08:13:29.946Z,22.80
2019-06-23T08:16:06.497Z,22.90
2019-06-23T08:18:31.516Z,23.00
2019-06-23T08:21:01.503Z,23.10
2019-06-23T08:23:50.591Z,23.20
2019-06-23T08:26:20.469Z,23.30
2019-06-23T08:28:50.347Z,23.40
2019-06-23T08:31:20.301Z,23.50
2019-06-23T08:33:50.347Z,23.60
2019-06-23T08:36:20.201Z,23.60
2019-06-23T08:38:50.127Z,23.60
2019-06-23T08:41:21.327Z,23.60
2019-06-23T08:43:51.231Z,23.70
2019-06-23T08:46:21.266Z,23.80
2019-06-23T08:48:51.257Z,23.90
2019-06-23T08:51:21.124Z,24.10
2019-06-23T08:53:51.073Z,24.20
2019-06-23T08:56:20.939Z,24.30
2019-06-23T08:58:50.878Z,24.30
2019-06-23T09:01:21.112Z,24.40
2019-06-23T09:03:53.081Z,24.50
2019-06-23T09:06:23.016Z,24.60
2019-06-23T09:08:52.926Z,24.60
2019-06-23T09:11:23.965Z,24.70
2019-06-23T09:13:55.010Z,24.80
2019-06-23T09:16:24.959Z,24.80
2019-06-23T09:18:54.820Z,24.90
2019-06-23T09:21:24.666Z,25.00
2019-06-23T09:23:54.590Z,25.10
2019-06-23T09:26:24.501Z,25.20
2019-06-23T09:28:54.398Z,25.30
2019-06-23T09:31:24.342Z,25.40
2019-06-23T09:33:54.209Z,25.60
2019-06-23T09:36:24.085Z,25.70
2019-06-23T09:38:54.019Z,25.90
2019-06-23T09:41:23.889Z,26.00
2019-06-23T09:43:53.774Z,26.00
2019-06-23T09:46:23.690Z,26.00
2019-06-23T09:48:53.568Z,25.90
2019-06-23T09:51:23.419Z,25.90
2019-06-23T09:53:53.390Z,26.10
2019-06-23T09:56:23.306Z,26.30
2019-06-23T09:58:53.374Z,26.50
2019-06-23T10:01:23.296Z,26.60
2019-06-23T10:03:53.490Z,26.80
2019-06-23T10:06:24.635Z,26.90
2019-06-23T10:09:03.988Z,26.90
2019-06-23T10:11:26.609Z,27.00
2019-06-23T10:13:56.841Z,27.10
2019-06-23T10:16:27.157Z,27.20
2019-06-23T10:18:57.210Z,27.30
2019-06-23T10:21:27.306Z,27.30
2019-06-23T10:23:57.701Z,27.40
2019-06-23T10:26:30.534Z,27.60
2019-06-23T10:29:00.909Z,27.70
2019-06-23T10:31:31.243Z,27.80
2019-06-23T10:34:01.498Z,27.90
2019-06-23T10:36:41.310Z,28.00
2019-06-23T10:39:20.290Z,28.00
2019-06-23T10:41:43.203Z,28.10
2019-06-23T10:44:13.073Z,28.10
2019-06-23T10:46:43.218Z,28.20
2019-06-23T10:49:14.792Z,28.20
2019-06-23T10:51:45.022Z,28.20
2019-06-23T10:54:16.667Z,28.30
2019-06-23T10:56:47.063Z,28.40
2019-06-23T10:59:17.646Z,28.60
2019-06-23T11:01:47.852Z,28.80
2019-06-23T11:04:19.641Z,29.00
2019-06-23T11:06:50.298Z,29.10
2019-06-23T11:09:35.436Z,29.20
2019-06-23T11:11:56.282Z,29.20
2019-06-23T11:14:27.676Z,29.30
2019-06-23T11:16:58.815Z,29.40
2019-06-23T11:19:28.728Z,29.40
2019-06-23T11:21:59.624Z,29.40
2019-06-23T11:24:31.439Z,29.50
2019-06-23T11:27:01.687Z,29.60
2019-06-23T11:29:33.340Z,29.80
2019-06-23T11:32:05.638Z,30.00
2019-06-23T11:35:05.503Z,30.10
2019-06-23T11:37:32.393Z,30.20
2019-06-23T11:40:02.526Z,30.50
2019-06-23T11:42:32.777Z,31.20
2019-06-23T11:45:02.923Z,31.90
2019-06-23T11:47:33.065Z,32.30
2019-06-23T11:50:02.994Z,32.60
2019-06-23T11:52:33.090Z,33.00
2019-06-23T11:55:10.812Z,33.40
2019-06-23T11:57:38.713Z,33.30
2019-06-23T12:00:09.475Z,33.10
2019-06-23T12:02:39.601Z,33.40
2019-06-23T12:05:10.086Z,33.80
2019-06-23T12:07:40.132Z,34.30
2019-06-23T12:10:11.345Z,34.60
2019-06-23T12:12:41.714Z,34.80
2019-06-23T12:15:12.084Z,35.10
2019-06-23T12:17:44.866Z,35.50
2019-06-23T12:20:15.259Z,35.50
2019-06-23T12:22:45.482Z,35.70
2019-06-23T12:25:15.799Z,36.00
2019-06-23T12:27:45.707Z,36.20
2019-06-23T12:30:16.781Z,36.60
2019-06-23T12:32:46.856Z,36.40
2019-06-23T12:35:17.444Z,36.10
2019-06-23T12:37:47.735Z,35.70
2019-06-23T12:40:24.597Z,35.80
2019-06-23T12:42:49.328Z,36.00
2019-06-23T12:45:19.519Z,36.10
2019-06-23T12:47:49.738Z,36.00
2019-06-23T12:50:19.760Z,36.10
2019-06-23T12:52:53.363Z,36.30
2019-06-23T12:55:23.507Z,36.40
2019-06-23T12:57:53.845Z,36.90
2019-06-23T13:00:24.205Z,37.40
2019-06-23T13:02:54.467Z,37.30
2019-06-23T13:05:24.629Z,36.80
2019-06-23T13:07:56.510Z,37.00
2019-06-23T13:10:39.534Z,36.90
2019-06-23T13:12:59.575Z,36.90
2019-06-23T13:15:29.718Z,37.00
2019-06-23T13:17:59.909Z,37.20
2019-06-23T13:20:30.183Z,37.70
2019-06-23T13:23:00.405Z,38.20
2019-06-23T13:25:30.824Z,38.50
2019-06-23T13:28:01.135Z,38.50
2019-06-23T13:30:31.175Z,38.00
2019-06-23T13:33:01.440Z,38.20
2019-06-23T13:35:31.822Z,38.20
2019-06-23T13:38:02.056Z,37.80
2019-06-23T13:40:33.928Z,38.00
2019-06-23T13:43:05.760Z,38.60
2019-06-23T13:45:41.484Z,39.30
2019-06-23T13:48:13.487Z,39.60
2019-06-23T13:50:45.517Z,39.70
2019-06-23T13:53:18.418Z,40.10
2019-06-23T13:55:49.314Z,40.40
2019-06-23T13:58:26.363Z,40.30
2019-06-23T14:00:56.939Z,40.20
2019-06-23T14:03:27.607Z,40.60
2019-06-23T14:05:58.431Z,40.90
2019-06-23T14:08:36.911Z,41.00
2019-06-23T14:11:12.726Z,41.30
2019-06-23T14:13:37.406Z,41.50
2019-06-23T14:16:08.508Z,41.80
2019-06-23T14:18:38.750Z,41.40
2019-06-23T14:21:09.019Z,40.90
2019-06-23T14:23:39.233Z,40.90
2019-06-23T14:26:09.340Z,40.20
2019-06-23T14:28:39.579Z,40.10
2019-06-23T14:31:09.856Z,40.10
2019-06-23T14:33:40.178Z,40.60
2019-06-23T14:36:10.401Z,40.50
2019-06-23T14:38:42.503Z,40.70
2019-06-23T14:41:27.445Z,40.90
2019-06-23T14:43:44.695Z,41.10
2019-06-23T14:46:15.034Z,41.20
2019-06-23T14:48:46.872Z,41.20
2019-06-23T14:51:18.119Z,41.40
2019-06-23T14:53:50.034Z,41.90
2019-06-23T14:56:21.391Z,42.00
2019-06-23T14:58:52.992Z,41.90
2019-06-23T15:01:30.324Z,41.80
2019-06-23T15:04:08.613Z,41.40
2019-06-23T15:06:38.857Z,41.70
2019-06-23T15:09:09.592Z,42.30
2019-06-23T15:11:44.532Z,42.20
2019-06-23T15:14:11.799Z,42.10
2019-06-23T15:16:42.992Z,41.70
2019-06-23T15:19:13.200Z,41.80
2019-06-23T15:21:43.469Z,41.70
2019-06-23T15:24:13.655Z,41.60
2019-06-23T15:26:43.989Z,41.60
2019-06-23T15:29:14.332Z,41.70
2019-06-23T15:31:44.575Z,41.10
2019-06-23T15:34:14.980Z,40.70
2019-06-23T15:36:45.236Z,41.10
2019-06-23T15:39:15.456Z,41.50
2019-06-23T15:41:59.784Z,41.90
2019-06-23T15:44:17.358Z,42.10
2019-06-23T15:46:47.498Z,42.20
2019-06-23T15:49:19.059Z,41.80
2019-06-23T15:51:49.337Z,42.00
2019-06-23T15:54:19.503Z,42.40
2019-06-23T15:56:51.179Z,42.40
2019-06-23T15:59:21.439Z,41.70
2019-06-23T16:01:51.612Z,41.20
2019-06-23T16:04:21.868Z,40.80
2019-06-23T16:06:52.143Z,40.90
2019-06-23T16:09:22.358Z,41.30
2019-06-23T16:11:52.530Z,41.30
2019-06-23T16:14:22.818Z,41.40
2019-06-23T16:16:54.441Z,41.50
2019-06-23T16:19:25.505Z,41.70
2019-06-23T16:21:55.726Z,41.90
2019-06-23T16:24:25.989Z,42.10
2019-06-23T16:26:56.298Z,41.40
2019-06-23T16:29:26.454Z,40.70
2019-06-23T16:31:56.764Z,40.70
2019-06-23T16:34:26.961Z,40.80
2019-06-23T16:36:57.259Z,40.90
2019-06-23T16:39:27.481Z,41.40
2019-06-23T16:41:57.682Z,41.50
2019-06-23T16:44:28.122Z,41.60
2019-06-23T16:46:58.444Z,41.40
2019-06-23T16:49:28.644Z,41.30
2019-06-23T16:51:58.964Z,41.00
2019-06-23T16:54:29.255Z,40.90
2019-06-23T16:56:59.437Z,41.00
2019-06-23T16:59:29.755Z,41.20
2019-06-23T17:01:59.903Z,41.30
2019-06-23T17:04:30.099Z,41.50
2019-06-23T17:07:00.348Z,41.60
2019-06-23T17:09:30.562Z,41.50
2019-06-23T17:12:00.707Z,41.40
2019-06-23T17:14:30.949Z,41.10
2019-06-23T17:17:06.262Z,41.10
2019-06-23T17:19:36.533Z,41.10
2019-06-23T17:22:06.795Z,41.10
2019-06-23T17:24:36.973Z,41.10
2019-06-23T17:27:07.142Z,41.00
2019-06-23T17:29:37.440Z,41.00
2019-06-23T17:32:07.675Z,41.00
2019-06-23T17:34:37.899Z,40.90
2019-06-23T17:37:08.185Z,40.70
2019-06-23T17:39:39.403Z,40.80
2019-06-23T17:42:10.518Z,40.60
2019-06-23T17:44:45.567Z,40.50
2019-06-23T17:47:15.877Z,40.30
2019-06-23T17:49:46.038Z,40.30
2019-06-23T17:52:16.322Z,40.40
2019-06-23T17:54:46.493Z,40.40
2019-06-23T17:57:16.603Z,40.20
2019-06-23T17:59:46.858Z,40.00
2019-06-23T18:02:17.092Z,39.80
2019-06-23T18:04:47.215Z,39.60
2019-06-23T18:07:18.700Z,39.30
2019-06-23T18:09:49.995Z,39.00
2019-06-23T18:12:21.622Z,38.60
2019-06-23T18:14:51.992Z,38.20
2019-06-23T18:17:22.206Z,38.00
2019-06-23T18:19:52.359Z,37.60
2019-06-23T18:22:22.536Z,37.00
2019-06-23T18:24:53.805Z,36.10
2019-06-23T18:27:24.077Z,35.20
2019-06-23T18:29:54.386Z,34.10
2019-06-23T18:32:24.507Z,33.00
2019-06-23T18:34:54.726Z,32.10
2019-06-23T18:37:25.005Z,31.20
2019-06-23T18:39:55.210Z,30.50
2019-06-23T18:42:25.373Z,29.80
2019-06-23T18:44:55.621Z,29.20
2019-06-23T18:47:26.110Z,28.70
2019-06-23T18:49:56.399Z,28.20
2019-06-23T18:52:26.580Z,27.90
2019-06-23T18:54:56.877Z,27.70
2019-06-23T18:57:31.128Z,27.50
2019-06-23T19:00:01.331Z,27.30
2019-06-23T19:02:31.647Z,27.00
2019-06-23T19:05:01.839Z,26.70
2019-06-23T19:07:32.067Z,26.50
2019-06-23T19:10:02.285Z,26.30
2019-06-23T19:12:32.507Z,26.10
2019-06-23T19:15:02.778Z,25.80
2019-06-23T19:17:32.978Z,25.60
2019-06-23T19:20:03.271Z,25.30
2019-06-23T19:22:33.530Z,25.10
2019-06-23T19:25:03.609Z,24.90
2019-06-23T19:27:34.694Z,24.80
2019-06-23T19:30:05.318Z,24.70
2019-06-23T19:32:35.633Z,24.60
2019-06-23T19:35:06.418Z,24.50
2019-06-23T19:37:37.633Z,24.30
2019-06-23T19:40:08.601Z,24.10
2019-06-23T19:42:38.915Z,24.00
2019-06-23T19:45:09.808Z,23.90
2019-06-23T19:47:40.199Z,23.70
2019-06-23T19:50:13.115Z,23.60
2019-06-23T19:52:43.347Z,23.50
2019-06-23T19:55:13.989Z,23.40
2019-06-23T19:57:44.214Z,23.40
2019-06-23T20:00:14.979Z,23.30
2019-06-23T20:02:45.073Z,23.30
2019-06-23T20:05:15.278Z,23.20
2019-06-23T20:07:45.608Z,23.10
2019-06-23T20:10:15.931Z,23.10
2019-06-23T20:12:46.199Z,23.00
2019-06-23T20:15:27.327Z,23.00
2019-06-23T20:17:49.143Z,23.00
2019-06-23T20:20:19.591Z,22.90
2019-06-23T20:22:49.893Z,22.90
2019-06-23T20:25:21.129Z,22.90
2019-06-23T20:27:51.194Z,22.90
2019-06-23T20:30:22.455Z,22.90
2019-06-23T20:32:52.676Z,22.90
2019-06-23T20:35:22.980Z,22.90
2019-06-23T20:37:53.203Z,22.80
2019-06-23T20:40:37.154Z,22.80
2019-06-23T20:42:55.250Z,22.70
2019-06-23T20:45:25.403Z,22.60
2019-06-23T20:47:58.898Z,22.50
2019-06-23T20:50:27.484Z,22.30
2019-06-23T20:52:57.762Z,22.20
2019-06-23T20:55:27.985Z,22.00
2019-06-23T20:57:58.318Z,21.90
2019-06-23T21:00:28.799Z,21.80
2019-06-23T21:02:59.239Z,21.70
2019-06-23T21:05:30.697Z,21.60
2019-06-23T21:08:01.045Z,21.60
2019-06-23T21:10:31.315Z,21.60
2019-06-23T21:13:01.589Z,21.50
2019-06-23T21:15:31.969Z,21.40
2019-06-23T21:18:02.136Z,21.30
2019-06-23T21:20:32.210Z,21.30
2019-06-23T21:23:02.414Z,21.30
2019-06-23T21:25:32.569Z,21.20
2019-06-23T21:28:02.786Z,21.20
2019-06-23T21:30:33.102Z,21.10
2019-06-23T21:33:04.182Z,21.10
2019-06-23T21:35:34.391Z,21.10
2019-06-23T21:38:04.621Z,21.10
2019-06-23T21:40:34.882Z,21.10
2019-06-23T21:43:05.202Z,21.10
2019-06-23T21:45:35.461Z,21.00
2019-06-23T21:48:05.607Z,20.90
2019-06-23T21:50:35.883Z,20.80
2019-06-23T21:53:06.141Z,20.80
2019-06-23T21:55:36.372Z,20.70
2019-06-23T21:58:06.590Z,20.70
2019-06-23T22:00:45.517Z,20.70
2019-06-23T22:03:15.634Z,20.70
2019-06-23T22:05:45.887Z,20.80
2019-06-23T22:08:16.121Z,20.90
2019-06-23T22:10:46.295Z,20.90
2019-06-23T22:13:16.455Z,20.80
2019-06-23T22:15:46.643Z,20.80
2019-06-23T22:18:16.865Z,20.70
2019-06-23T22:20:47.051Z,20.60
2019-06-23T22:23:17.389Z,20.60
2019-06-23T22:25:47.724Z,20.50
2019-06-23T22:28:17.955Z,20.50
2019-06-23T22:30:48.266Z,20.30
2019-06-23T22:33:18.627Z,20.30
2019-06-23T22:35:49.823Z,20.20
2019-06-23T22:38:20.171Z,20.20
2019-06-23T22:40:50.844Z,20.10
2019-06-23T22:43:20.989Z,20.10
2019-06-23T22:45:51.187Z,20.10
2019-06-23T22:48:21.397Z,20.10
2019-06-23T22:50:51.618Z,20.10
2019-06-23T22:53:21.865Z,20.10
2019-06-23T22:55:52.025Z,20.10
2019-06-23T22:58:22.271Z,20.00
2019-06-23T23:00:52.558Z,19.90
2019-06-23T23:03:22.791Z,19.90
2019-06-23T23:05:52.879Z,19.80
2019-06-23T23:08:23.232Z,19.70
2019-06-23T23:10:53.329Z,19.70
2019-06-23T23:13:23.686Z,19.70
2019-06-23T23:16:03.297Z,19.70
2019-06-23T23:18:25.981Z,19.70
2019-06-23T23:20:56.162Z,19.70
2019-06-23T23:23:26.498Z,19.70
2019-06-23T23:25:56.733Z,19.70
2019-06-23T23:28:26.973Z,19.70
2019-06-23T23:30:57.224Z,19.60
2019-06-23T23:33:27.484Z,19.60
2019-06-23T23:35:58.720Z,19.50
2019-06-23T23:38:29.003Z,19.50
2019-06-23T23:40:59.205Z,19.40
2019-06-23T23:43:29.585Z,19.40
2019-06-23T23:45:59.869Z,19.30
2019-06-23T23:48:30.002Z,19.30
2019-06-23T23:51:00.278Z,19.20
2019-06-23T23:53:30.550Z,19.20
2019-06-23T23:56:00.655Z,19.10
2019-06-23T23:58:30.880Z,19.10
